createdAt,value
2023-04-30T00:01:26.870Z,93.40
2023-04-30T00:03:53.641Z,93.40
2023-04-30T00:06:20.368Z,93.40
2023-04-30T00:08:47.015Z,93.60
2023-04-30T00:11:13.674Z,93.90
2023-04-30T00:13:41.999Z,93.40
2023-04-30T00:16:08.708Z,93.40
2023-04-30T00:18:35.317Z,93.30
2023-04-30T00:21:01.934Z,93.50
2023-04-30T00:23:28.716Z,93.40
2023-04-30T00:25:55.382Z,93.50
2023-04-30T00:28:22.028Z,93.60
2023-04-30T00:30:48.802Z,93.40
2023-04-30T00:33:15.392Z,93.50
2023-04-30T00:35:42.249Z,93.50
2023-04-30T00:38:08.931Z,93.50
2023-04-30T00:40:36.057Z,93.50
2023-04-30T00:43:02.724Z,93.40
2023-04-30T00:45:30.469Z,93.50
2023-04-30T00:47:57.213Z,93.60
2023-04-30T00:50:24.694Z,93.50
2023-04-30T00:52:51.765Z,93.60
2023-04-30T00:55:18.734Z,93.40
2023-04-30T00:57:46.567Z,93.30
2023-04-30T01:00:13.995Z,93.50
2023-04-30T01:02:41.230Z,93.40
2023-04-30T01:05:08.147Z,93.30
2023-04-30T01:07:36.236Z,93.50
2023-04-30T01:10:03.271Z,93.50
2023-04-30T01:12:37.738Z,93.40
2023-04-30T01:15:28.060Z,93.40
2023-04-30T01:18:25.781Z,93.40
2023-04-30T01:21:02.486Z,93.30
2023-04-30T01:23:55.194Z,93.70
2023-04-30T01:26:59.292Z,93.50
2023-04-30T01:29:27.630Z,93.70
2023-04-30T01:31:54.243Z,93.60
2023-04-30T01:34:20.851Z,93.50
2023-04-30T01:36:55.825Z,93.50
2023-04-30T01:39:42.071Z,93.30
2023-04-30T01:42:21.636Z,93.40
2023-04-30T01:45:30.150Z,93.50
2023-04-30T01:48:21.362Z,93.40
2023-04-30T01:50:51.884Z,93.40
2023-04-30T01:53:29.032Z,93.40
2023-04-30T01:56:06.496Z,93.30
2023-04-30T01:58:35.434Z,93.50
2023-04-30T02:01:02.044Z,93.50
2023-04-30T02:03:28.845Z,93.50
2023-04-30T02:05:58.986Z,93.20
2023-04-30T02:08:25.725Z,93.30
2023-04-30T02:10:52.306Z,93.50
2023-04-30T02:13:18.965Z,93.50
2023-04-30T02:15:45.665Z,93.50
2023-04-30T02:18:12.381Z,93.50
2023-04-30T02:20:39.026Z,93.50
2023-04-30T02:23:05.796Z,93.50
2023-04-30T02:25:37.744Z,93.70
2023-04-30T02:28:04.708Z,93.50
2023-04-30T02:30:31.415Z,93.50
2023-04-30T02:32:58.090Z,93.50
2023-04-30T02:35:24.770Z,93.50
2023-04-30T02:37:51.395Z,93.50
2023-04-30T02:40:17.999Z,93.70
2023-04-30T02:42:44.620Z,93.70
2023-04-30T02:45:11.358Z,93.50
2023-04-30T02:47:38.009Z,93.50
2023-04-30T02:50:05.403Z,93.50
2023-04-30T02:52:32.271Z,93.40
2023-04-30T02:54:58.871Z,93.50
2023-04-30T02:57:26.333Z,93.80
2023-04-30T02:59:53.201Z,93.60
2023-04-30T03:02:23.390Z,93.40
2023-04-30T03:04:51.038Z,93.70
2023-04-30T03:07:17.618Z,93.50
2023-04-30T03:09:44.212Z,93.60
2023-04-30T03:12:10.786Z,93.60
2023-04-30T03:14:37.563Z,93.70
2023-04-30T03:17:04.155Z,93.80
2023-04-30T03:19:30.753Z,93.80
2023-04-30T03:21:57.345Z,93.90
2023-04-30T03:24:25.028Z,94.00
2023-04-30T03:26:51.698Z,93.90
2023-04-30T03:29:18.513Z,94.00
2023-04-30T03:31:45.299Z,94.00
2023-04-30T03:34:11.916Z,94.00
2023-04-30T03:36:38.544Z,94.00
2023-04-30T03:39:05.326Z,94.10
2023-04-30T03:41:32.080Z,94.00
2023-04-30T03:43:58.660Z,94.00
2023-04-30T03:46:25.569Z,93.90
2023-04-30T03:48:52.360Z,94.10
2023-04-30T03:51:20.606Z,94.10
2023-04-30T03:53:47.463Z,94.10
2023-04-30T03:56:14.807Z,94.10
2023-04-30T03:58:42.415Z,94.10
2023-04-30T04:01:09.152Z,94.20
2023-04-30T04:03:35.990Z,94.20
2023-04-30T04:06:05.398Z,94.20
2023-04-30T04:08:32.689Z,94.30
2023-04-30T04:10:59.441Z,94.20
2023-04-30T04:13:26.027Z,94.40
2023-04-30T04:15:52.862Z,94.00
2023-04-30T04:18:20.788Z,94.30
2023-04-30T04:20:47.502Z,94.30
2023-04-30T04:23:14.296Z,94.50
2023-04-30T04:25:41.560Z,94.40
2023-04-30T04:28:08.421Z,94.30
2023-04-30T04:30:36.483Z,94.40
2023-04-30T04:33:03.362Z,94.40
2023-04-30T04:35:30.028Z,94.40
2023-04-30T04:37:57.152Z,94.40
2023-04-30T04:40:23.845Z,94.50
2023-04-30T04:42:53.791Z,94.30
2023-04-30T04:45:20.653Z,94.30
2023-04-30T04:47:49.181Z,94.30
2023-04-30T04:50:15.934Z,94.50
2023-04-30T04:52:42.545Z,94.30
2023-04-30T04:55:09.623Z,94.10
2023-04-30T04:57:36.586Z,94.30
2023-04-30T05:00:06.186Z,94.40
2023-04-30T05:02:32.982Z,94.10
2023-04-30T05:04:59.689Z,94.50
2023-04-30T05:07:26.282Z,94.50
2023-04-30T05:09:53.181Z,94.10
2023-04-30T05:12:19.973Z,94.20
2023-04-30T05:14:47.610Z,94.20
2023-04-30T05:17:14.262Z,94.60
2023-04-30T05:19:40.811Z,94.00
2023-04-30T05:22:07.394Z,94.00
2023-04-30T05:24:34.090Z,94.10
2023-04-30T05:27:02.686Z,93.80
2023-04-30T05:29:29.278Z,93.70
2023-04-30T05:31:55.968Z,93.80
2023-04-30T05:34:22.650Z,93.90
2023-04-30T05:36:49.263Z,93.50
2023-04-30T05:39:15.901Z,93.80
2023-04-30T05:41:42.623Z,93.50
2023-04-30T05:44:09.236Z,94.10
2023-04-30T05:46:35.916Z,93.80
2023-04-30T05:49:02.590Z,93.40
2023-04-30T05:51:29.280Z,93.40
2023-04-30T05:53:57.441Z,93.50
2023-04-30T05:56:24.851Z,94.00
2023-04-30T05:58:52.478Z,93.80
2023-04-30T06:01:23.066Z,92.50
2023-04-30T06:03:49.724Z,92.70
2023-04-30T06:06:16.467Z,92.80
2023-04-30T06:08:45.172Z,92.40
2023-04-30T06:11:12.908Z,92.40
2023-04-30T06:13:40.330Z,93.60
2023-04-30T06:16:08.220Z,93.40
2023-04-30T06:18:35.125Z,92.30
2023-04-30T06:21:01.857Z,91.50
2023-04-30T06:23:28.446Z,91.90
2023-04-30T06:25:55.161Z,91.80
2023-04-30T06:28:21.785Z,92.40
2023-04-30T06:30:48.398Z,92.00
2023-04-30T06:33:14.992Z,91.20
2023-04-30T06:35:41.694Z,92.20
2023-04-30T06:38:09.306Z,90.20
2023-04-30T06:40:36.125Z,90.40
2023-04-30T06:43:02.734Z,90.90
2023-04-30T06:45:29.595Z,90.70
2023-04-30T06:47:56.320Z,91.20
2023-04-30T06:50:23.082Z,93.00
2023-04-30T06:52:49.792Z,91.00
2023-04-30T06:55:16.413Z,95.10
2023-04-30T06:57:43.468Z,94.60
2023-04-30T07:00:11.102Z,89.50
2023-04-30T07:02:37.904Z,94.10
2023-04-30T07:05:04.798Z,93.50
2023-04-30T07:07:32.382Z,90.30
2023-04-30T07:09:59.104Z,93.80
2023-04-30T07:12:25.960Z,92.40
2023-04-30T07:14:53.204Z,90.20
2023-04-30T07:17:19.949Z,89.30
2023-04-30T07:19:46.644Z,90.80
2023-04-30T07:22:13.255Z,96.30
2023-04-30T07:24:39.857Z,89.10
2023-04-30T07:27:07.328Z,89.10
2023-04-30T07:29:34.904Z,90.20
2023-04-30T07:32:01.596Z,93.70
2023-04-30T07:34:28.539Z,87.80
2023-04-30T07:36:55.445Z,91.10
2023-04-30T07:39:22.054Z,95.70
2023-04-30T07:41:48.678Z,93.50
2023-04-30T07:44:15.519Z,90.70
2023-04-30T07:46:42.138Z,88.20
2023-04-30T07:49:08.954Z,88.90
2023-04-30T07:51:35.825Z,92.20
2023-04-30T07:54:02.620Z,97.30
2023-04-30T07:56:29.212Z,92.10
2023-04-30T07:58:55.871Z,97.70
2023-04-30T08:01:22.742Z,93.60
2023-04-30T08:03:49.425Z,88.80
2023-04-30T08:06:16.260Z,89.20
2023-04-30T08:08:42.875Z,88.50
2023-04-30T08:11:09.611Z,87.80
2023-04-30T08:13:36.705Z,86.90
2023-04-30T08:16:03.392Z,88.60
2023-04-30T08:18:32.100Z,97.80
2023-04-30T08:21:00.642Z,94.90
2023-04-30T08:23:27.835Z,88.90
2023-04-30T08:25:54.572Z,88.60
2023-04-30T08:28:21.243Z,87.10
2023-04-30T08:30:47.844Z,93.00
2023-04-30T08:33:14.550Z,90.80
2023-04-30T08:36:44.862Z,97.60
2023-04-30T08:39:11.476Z,98.50
2023-04-30T08:41:39.878Z,99.10
2023-04-30T08:44:08.352Z,96.00
2023-04-30T08:46:37.643Z,93.70
2023-04-30T08:49:04.626Z,91.10
2023-04-30T08:51:33.454Z,98.50
2023-04-30T08:54:00.081Z,92.70
2023-04-30T08:56:26.861Z,90.30
2023-04-30T08:58:53.473Z,90.20
2023-04-30T09:01:20.603Z,89.70
2023-04-30T09:03:47.565Z,89.60
2023-04-30T09:06:17.764Z,94.30
2023-04-30T09:08:48.951Z,90.50
2023-04-30T09:11:30.218Z,90.20
2023-04-30T09:13:59.555Z,88.90
2023-04-30T09:16:28.298Z,89.10
2023-04-30T09:18:56.329Z,87.70
2023-04-30T09:21:37.154Z,86.00
2023-04-30T09:24:05.468Z,86.10
2023-04-30T09:26:34.741Z,87.90
2023-04-30T09:29:07.459Z,90.80
2023-04-30T09:31:38.809Z,85.70
2023-04-30T09:34:06.421Z,86.70
2023-04-30T09:36:33.703Z,83.70
2023-04-30T09:39:14.934Z,83.20
2023-04-30T09:41:42.208Z,83.90
2023-04-30T09:44:25.729Z,85.90
2023-04-30T09:46:52.806Z,86.30
2023-04-30T09:49:19.978Z,86.00
2023-04-30T09:52:00.923Z,84.20
2023-04-30T09:54:29.480Z,84.10
2023-04-30T09:57:01.379Z,85.10
2023-04-30T09:59:36.380Z,84.30
2023-04-30T10:02:04.809Z,85.60
2023-04-30T10:04:37.583Z,84.00
2023-04-30T10:07:15.738Z,85.60
2023-04-30T10:09:50.298Z,84.60
2023-04-30T10:12:23.380Z,85.20
2023-04-30T10:15:06.318Z,85.70
2023-04-30T10:17:34.866Z,84.60
2023-04-30T10:20:07.471Z,82.10
2023-04-30T10:22:35.616Z,81.50
2023-04-30T10:25:03.465Z,82.80
2023-04-30T10:27:30.716Z,83.40
2023-04-30T10:29:58.526Z,82.60
2023-04-30T10:32:32.297Z,82.70
2023-04-30T10:35:19.829Z,83.60
2023-04-30T10:37:50.822Z,83.10
2023-04-30T10:40:19.132Z,84.70
2023-04-30T10:42:49.893Z,83.40
2023-04-30T10:45:17.330Z,83.50
2023-04-30T10:47:47.965Z,82.50
2023-04-30T10:50:14.889Z,83.20
2023-04-30T10:52:41.575Z,85.50
2023-04-30T10:55:09.881Z,82.80
2023-04-30T10:57:43.592Z,84.00
2023-04-30T11:00:10.351Z,84.30
2023-04-30T11:02:41.437Z,83.30
2023-04-30T11:05:09.011Z,84.80
2023-04-30T11:07:36.112Z,85.80
2023-04-30T11:10:03.393Z,89.60
2023-04-30T11:12:30.316Z,93.50
2023-04-30T11:15:12.304Z,97.10
2023-04-30T11:17:39.347Z,90.80
2023-04-30T11:20:07.162Z,93.80
2023-04-30T11:22:36.821Z,94.50
2023-04-30T11:25:05.602Z,96.60
2023-04-30T11:27:34.192Z,97.50
2023-04-30T11:30:02.344Z,96.60
2023-04-30T11:32:34.891Z,97.60
2023-04-30T11:35:06.041Z,96.00
2023-04-30T11:37:33.839Z,87.60
2023-04-30T11:40:02.612Z,84.00
2023-04-30T11:42:30.706Z,83.20
2023-04-30T11:45:04.579Z,92.30
2023-04-30T11:47:48.414Z,86.80
2023-04-30T11:50:17.206Z,93.30
2023-04-30T11:52:50.538Z,87.60
2023-04-30T11:55:20.465Z,88.80
2023-04-30T11:57:50.016Z,83.70
2023-04-30T12:00:19.063Z,80.10
2023-04-30T12:02:47.562Z,80.10
2023-04-30T12:05:18.160Z,79.40
2023-04-30T12:07:47.084Z,79.70
2023-04-30T12:10:13.809Z,81.60
2023-04-30T12:12:42.488Z,84.70
2023-04-30T12:15:17.653Z,87.70
2023-04-30T12:17:46.103Z,84.20
2023-04-30T12:20:15.173Z,82.80
2023-04-30T12:22:43.657Z,79.00
2023-04-30T12:25:15.881Z,78.30
2023-04-30T12:27:46.051Z,91.20
2023-04-30T12:30:13.548Z,78.60
2023-04-30T12:32:46.045Z,82.60
2023-04-30T12:35:18.184Z,80.50
2023-04-30T12:37:46.226Z,79.20
2023-04-30T12:40:14.063Z,89.80
2023-04-30T12:42:44.040Z,80.10
2023-04-30T12:45:11.586Z,79.80
2023-04-30T12:47:42.542Z,79.40
2023-04-30T12:50:12.653Z,78.90
2023-04-30T12:52:44.446Z,79.90
2023-04-30T12:55:21.081Z,79.90
2023-04-30T12:58:08.561Z,81.40
2023-04-30T13:00:50.476Z,80.80
2023-04-30T13:03:21.637Z,81.20
2023-04-30T13:05:50.769Z,82.10
2023-04-30T13:08:18.433Z,80.40
2023-04-30T13:10:46.832Z,78.40
2023-04-30T13:13:15.299Z,78.40
2023-04-30T13:15:45.095Z,77.70
2023-04-30T13:18:12.312Z,77.10
2023-04-30T13:20:39.238Z,78.40
2023-04-30T13:23:06.406Z,79.70
2023-04-30T13:25:34.685Z,80.40
2023-04-30T13:28:01.484Z,80.50
2023-04-30T13:30:28.645Z,81.60
2023-04-30T13:32:55.361Z,78.80
2023-04-30T13:35:22.324Z,79.70
2023-04-30T13:37:52.258Z,80.40
2023-04-30T13:40:20.619Z,80.80
2023-04-30T13:42:48.812Z,81.30
2023-04-30T13:45:16.374Z,81.70
2023-04-30T13:47:43.207Z,80.70
2023-04-30T13:50:10.328Z,79.70
2023-04-30T13:52:36.940Z,86.10
2023-04-30T13:55:05.800Z,81.70
2023-04-30T13:57:35.256Z,80.40
2023-04-30T14:00:02.410Z,81.00
2023-04-30T14:02:34.889Z,81.50
2023-04-30T14:05:06.402Z,81.00
2023-04-30T14:07:33.709Z,80.40
2023-04-30T14:10:00.727Z,82.00
2023-04-30T14:12:27.448Z,81.10
2023-04-30T14:14:54.117Z,82.00
2023-04-30T14:17:20.969Z,82.20
2023-04-30T14:19:47.636Z,81.40
2023-04-30T14:22:14.638Z,80.60
2023-04-30T14:24:41.358Z,80.50
2023-04-30T14:27:08.155Z,82.50
2023-04-30T14:29:34.778Z,81.60
2023-04-30T14:32:01.919Z,81.90
2023-04-30T14:34:28.624Z,82.40
2023-04-30T14:36:55.417Z,81.10
2023-04-30T14:39:22.022Z,81.80
2023-04-30T14:41:48.648Z,80.80
2023-04-30T14:44:15.241Z,81.90
2023-04-30T14:46:41.992Z,80.80
2023-04-30T14:49:08.728Z,80.80
2023-04-30T14:51:35.914Z,81.00
2023-04-30T14:54:02.953Z,81.70
2023-04-30T14:56:29.749Z,81.80
2023-04-30T14:58:56.486Z,80.00
2023-04-30T15:01:23.389Z,80.60
2023-04-30T15:03:50.923Z,90.30
2023-04-30T15:06:17.809Z,82.50
2023-04-30T15:08:44.549Z,80.40
2023-04-30T15:11:13.073Z,80.30
2023-04-30T15:13:40.099Z,79.30
2023-04-30T15:16:07.256Z,79.80
2023-04-30T15:18:34.403Z,79.60
2023-04-30T15:21:01.970Z,82.90
2023-04-30T15:23:28.761Z,93.90
2023-04-30T15:25:56.578Z,85.70
2023-04-30T15:28:24.539Z,87.20
2023-04-30T15:30:52.296Z,93.10
2023-04-30T15:33:19.808Z,86.50
2023-04-30T15:35:47.554Z,84.80
2023-04-30T15:38:14.233Z,88.30
2023-04-30T15:40:41.094Z,84.00
2023-04-30T15:43:07.888Z,92.10
2023-04-30T15:45:34.851Z,95.60
2023-04-30T15:48:01.638Z,96.60
2023-04-30T15:50:28.946Z,92.40
2023-04-30T15:52:55.944Z,92.00
2023-04-30T15:55:23.434Z,83.70
2023-04-30T15:57:50.445Z,81.50
2023-04-30T16:00:17.628Z,80.90
2023-04-30T16:02:44.431Z,81.30
2023-04-30T16:05:11.777Z,94.30
2023-04-30T16:07:38.484Z,92.30
2023-04-30T16:10:06.864Z,92.00
2023-04-30T16:12:34.211Z,95.60
2023-04-30T16:15:00.843Z,94.70
2023-04-30T16:17:27.540Z,84.30
2023-04-30T16:19:54.525Z,83.10
2023-04-30T16:22:21.693Z,91.70
2023-04-30T16:24:48.272Z,89.30
2023-04-30T16:27:14.896Z,85.00
2023-04-30T16:29:41.876Z,83.20
2023-04-30T16:32:08.885Z,81.90
2023-04-30T16:34:35.601Z,86.50
2023-04-30T16:37:02.243Z,93.20
2023-04-30T16:39:28.848Z,94.40
2023-04-30T16:41:55.615Z,96.10
2023-04-30T16:44:22.573Z,89.40
2023-04-30T16:46:49.414Z,84.10
2023-04-30T16:49:16.394Z,94.20
2023-04-30T16:51:43.026Z,85.40
2023-04-30T16:54:09.745Z,85.50
2023-04-30T16:56:36.458Z,83.30
2023-04-30T16:59:03.104Z,81.20
2023-04-30T17:01:29.838Z,80.30
2023-04-30T17:03:56.545Z,85.60
2023-04-30T17:06:23.291Z,82.40
2023-04-30T17:08:50.002Z,85.30
2023-04-30T17:11:20.471Z,90.70
2023-04-30T17:13:47.202Z,84.90
2023-04-30T17:16:13.902Z,84.10
2023-04-30T17:18:40.686Z,90.60
2023-04-30T17:21:07.423Z,88.90
2023-04-30T17:23:34.114Z,82.80
2023-04-30T17:26:01.582Z,82.90
2023-04-30T17:28:28.366Z,81.70
2023-04-30T17:30:55.299Z,80.90
2023-04-30T17:33:21.991Z,81.00
2023-04-30T17:35:48.625Z,84.40
2023-04-30T17:38:15.744Z,82.50
2023-04-30T17:40:42.458Z,81.10
2023-04-30T17:43:09.106Z,81.50
2023-04-30T17:45:35.760Z,81.60
2023-04-30T17:48:02.441Z,80.60
2023-04-30T17:50:29.238Z,81.10
2023-04-30T17:52:55.895Z,80.40
2023-04-30T17:55:23.622Z,80.60
2023-04-30T17:57:50.264Z,80.30
2023-04-30T18:00:17.263Z,81.10
2023-04-30T18:02:44.078Z,80.90
2023-04-30T18:05:11.642Z,80.80
2023-04-30T18:07:38.411Z,88.80
2023-04-30T18:10:05.469Z,81.30
2023-04-30T18:12:32.296Z,82.10
2023-04-30T18:14:59.099Z,81.70
2023-04-30T18:17:25.930Z,81.40
2023-04-30T18:19:52.644Z,81.30
2023-04-30T18:22:19.477Z,81.50
2023-04-30T18:24:46.121Z,82.60
2023-04-30T18:27:13.144Z,81.70
2023-04-30T18:29:39.732Z,81.20
2023-04-30T18:32:06.534Z,82.60
2023-04-30T18:34:33.476Z,82.60
2023-04-30T18:37:00.453Z,82.20
2023-04-30T18:39:27.348Z,82.90
2023-04-30T18:41:53.996Z,83.80
2023-04-30T18:44:32.154Z,83.50
2023-04-30T18:46:58.974Z,84.80
2023-04-30T18:49:25.613Z,84.60
2023-04-30T18:51:54.589Z,83.50
2023-04-30T18:54:22.010Z,84.10
2023-04-30T18:56:48.720Z,84.40
2023-04-30T18:59:15.600Z,84.50
2023-04-30T19:01:42.628Z,84.50
2023-04-30T19:04:13.497Z,84.80
2023-04-30T19:06:40.265Z,84.20
2023-04-30T19:09:07.036Z,84.40
2023-04-30T19:11:35.576Z,85.40
2023-04-30T19:14:02.395Z,86.10
2023-04-30T19:16:29.168Z,85.70
2023-04-30T19:18:55.935Z,86.80
2023-04-30T19:21:23.470Z,87.10
2023-04-30T19:23:50.169Z,87.40
2023-04-30T19:26:16.805Z,87.40
2023-04-30T19:28:43.423Z,87.30
2023-04-30T19:31:12.240Z,87.30
2023-04-30T19:33:40.916Z,87.50
2023-04-30T19:36:07.615Z,88.20
2023-04-30T19:38:34.316Z,87.60
2023-04-30T19:41:01.309Z,88.10
2023-04-30T19:43:28.003Z,88.00
2023-04-30T19:45:58.836Z,88.50
2023-04-30T19:48:26.027Z,88.80
2023-04-30T19:50:53.672Z,88.70
2023-04-30T19:53:21.487Z,89.30
2023-04-30T19:55:48.506Z,88.40
2023-04-30T19:58:15.249Z,88.40
2023-04-30T20:00:45.252Z,88.60
2023-04-30T20:03:13.463Z,88.70
2023-04-30T20:05:40.622Z,89.40
2023-04-30T20:08:08.111Z,88.70
2023-04-30T20:10:36.672Z,89.40
2023-04-30T20:13:04.505Z,89.90
2023-04-30T20:15:31.803Z,89.40
2023-04-30T20:17:58.889Z,89.10
2023-04-30T20:20:25.612Z,89.50
2023-04-30T20:22:54.057Z,89.90
2023-04-30T20:25:22.430Z,89.70
2023-04-30T20:27:49.434Z,89.30
2023-04-30T20:30:16.236Z,89.60
2023-04-30T20:32:43.220Z,90.00
2023-04-30T20:35:10.074Z,90.00
2023-04-30T20:37:37.625Z,90.10
2023-04-30T20:40:04.791Z,90.30
2023-04-30T20:42:31.413Z,90.00
2023-04-30T20:44:58.250Z,90.20
2023-04-30T20:47:24.998Z,90.20
2023-04-30T20:49:51.643Z,90.20
2023-04-30T20:52:18.959Z,90.20
2023-04-30T20:54:45.879Z,90.20
2023-04-30T20:57:12.755Z,90.20
2023-04-30T20:59:39.366Z,90.20
2023-04-30T21:02:06.410Z,90.20
2023-04-30T21:04:33.038Z,90.20
2023-04-30T21:06:59.635Z,90.40
2023-04-30T21:09:26.252Z,90.50
2023-04-30T21:11:53.172Z,90.60
2023-04-30T21:14:21.085Z,90.80
2023-04-30T21:16:47.767Z,90.60
2023-04-30T21:19:14.526Z,90.60
2023-04-30T21:21:41.080Z,90.90
2023-04-30T21:24:08.707Z,90.80
2023-04-30T21:26:35.311Z,90.90
2023-04-30T21:29:02.806Z,91.00
2023-04-30T21:31:29.616Z,90.90
2023-04-30T21:33:56.298Z,90.80
2023-04-30T21:36:23.414Z,90.80
2023-04-30T21:38:50.013Z,91.30
2023-04-30T21:41:17.295Z,91.30
2023-04-30T21:43:44.218Z,91.40
2023-04-30T21:46:11.169Z,91.40
2023-04-30T21:48:38.343Z,91.30
2023-04-30T21:51:12.541Z,91.40
2023-04-30T21:53:39.293Z,91.60
2023-04-30T21:56:10.240Z,91.70
2023-04-30T21:58:38.126Z,91.60
2023-04-30T22:01:05.367Z,91.60
2023-04-30T22:03:32.662Z,91.60
2023-04-30T22:05:59.594Z,91.70
2023-04-30T22:08:26.476Z,91.60
2023-04-30T22:11:00.332Z,91.60
2023-04-30T22:13:28.214Z,91.60
2023-04-30T22:15:55.609Z,91.60
2023-04-30T22:18:24.221Z,91.50
2023-04-30T22:20:51.891Z,91.30
2023-04-30T22:23:21.233Z,91.30
2023-04-30T22:25:48.607Z,91.10
2023-04-30T22:28:19.165Z,91.00
2023-04-30T22:30:46.068Z,90.60
2023-04-30T22:33:13.075Z,90.60
2023-04-30T22:35:39.917Z,90.40
2023-04-30T22:38:07.253Z,90.60
2023-04-30T22:40:37.414Z,90.60
2023-04-30T22:43:05.110Z,90.70
2023-04-30T22:45:32.297Z,90.60
2023-04-30T22:48:01.393Z,90.40
2023-04-30T22:50:29.873Z,90.50
2023-04-30T22:52:56.708Z,90.60
2023-04-30T22:55:23.396Z,90.50
2023-04-30T22:57:50.016Z,90.20
2023-04-30T23:00:18.140Z,90.40
2023-04-30T23:02:44.777Z,90.60
2023-04-30T23:05:12.507Z,90.70
2023-04-30T23:07:39.531Z,90.70
2023-04-30T23:10:06.708Z,90.80
2023-04-30T23:12:34.978Z,90.70
2023-04-30T23:15:01.952Z,90.60
2023-04-30T23:17:28.593Z,90.60
2023-04-30T23:19:55.369Z,90.50
2023-04-30T23:22:22.272Z,90.70
2023-04-30T23:24:48.862Z,90.90
2023-04-30T23:27:18.737Z,90.90
2023-04-30T23:29:45.337Z,90.90
2023-04-30T23:32:11.960Z,90.80
2023-04-30T23:34:38.637Z,90.90
2023-04-30T23:37:05.270Z,91.10
2023-04-30T23:39:32.297Z,91.00
2023-04-30T23:41:58.919Z,91.40
2023-04-30T23:44:25.529Z,90.90
2023-04-30T23:46:52.298Z,91.20
2023-04-30T23:49:18.892Z,91.10
2023-04-30T23:51:45.716Z,91.10
2023-04-30T23:54:12.359Z,91.20
2023-04-30T23:56:38.988Z,91.00
2023-04-30T23:59:05.570Z,91.00
